sensor_id;sensor_type;location;lat;lon;timestamp;pressure;altitude;pressure_sealevel;temperature;humidity
21960;BME280;11144;43.030;25.108;2024-01-30T00:00:55;101782.63;;;0.98;71.95
21960;BME280;11144;43.030;25.108;2024-01-30T00:02:28;101783.34;;;1.02;71.81
21960;BME280;11144;43.030;25.108;2024-01-30T00:04:01;101793.69;;;1.02;71.85
21960;BME280;11144;43.030;25.108;2024-01-30T00:05:34;101790.97;;;1.05;71.82
21960;BME280;11144;43.030;25.108;2024-01-30T00:07:07;101801.38;;;1.03;71.85
21960;BME280;11144;43.030;25.108;2024-01-30T00:08:40;101805.69;;;1.03;71.96
21960;BME280;11144;43.030;25.108;2024-01-30T00:10:13;101787.97;;;0.94;71.69
21960;BME280;11144;43.030;25.108;2024-01-30T00:11:46;101799.81;;;0.99;71.77
21960;BME280;11144;43.030;25.108;2024-01-30T00:13:19;101787.25;;;0.90;71.66
21960;BME280;11144;43.030;25.108;2024-01-30T00:14:53;101804.84;;;1.02;71.62
21960;BME280;11144;43.030;25.108;2024-01-30T00:16:27;101800.41;;;1.06;71.60
21960;BME280;11144;43.030;25.108;2024-01-30T00:18:00;101796.91;;;1.07;71.52
21960;BME280;11144;43.030;25.108;2024-01-30T00:19:33;101798.41;;;1.12;71.65
21960;BME280;11144;43.030;25.108;2024-01-30T00:21:06;101799.06;;;1.17;71.40
21960;BME280;11144;43.030;25.108;2024-01-30T00:22:39;101797.13;;;1.22;71.07
21960;BME280;11144;43.030;25.108;2024-01-30T00:24:11;101791.00;;;1.25;71.39
21960;BME280;11144;43.030;25.108;2024-01-30T00:25:45;101783.44;;;1.20;71.34
21960;BME280;11144;43.030;25.108;2024-01-30T00:27:17;101796.09;;;1.26;71.32
21960;BME280;11144;43.030;25.108;2024-01-30T00:28:50;101796.06;;;1.28;71.34
21960;BME280;11144;43.030;25.108;2024-01-30T00:30:24;101802.84;;;1.30;71.38
21960;BME280;11144;43.030;25.108;2024-01-30T00:31:57;101797.63;;;1.32;71.16
21960;BME280;11144;43.030;25.108;2024-01-30T00:33:30;101795.91;;;1.31;71.18
21960;BME280;11144;43.030;25.108;2024-01-30T00:35:04;101795.91;;;1.31;71.19
21960;BME280;11144;43.030;25.108;2024-01-30T00:36:37;101789.34;;;1.24;71.28
21960;BME280;11144;43.030;25.108;2024-01-30T00:38:10;101797.72;;;1.29;71.19
21960;BME280;11144;43.030;25.108;2024-01-30T00:39:42;101801.22;;;1.28;71.24
21960;BME280;11144;43.030;25.108;2024-01-30T00:41:17;101807.09;;;1.31;71.13
21960;BME280;11144;43.030;25.108;2024-01-30T00:42:49;101807.75;;;1.36;71.13
21960;BME280;11144;43.030;25.108;2024-01-30T00:44:23;101801.63;;;1.39;70.87
21960;BME280;11144;43.030;25.108;2024-01-30T00:45:56;101806.84;;;1.37;70.93
21960;BME280;11144;43.030;25.108;2024-01-30T00:47:30;101807.69;;;1.38;71.02
21960;BME280;11144;43.030;25.108;2024-01-30T00:49:05;101808.06;;;1.29;70.94
21960;BME280;11144;43.030;25.108;2024-01-30T00:50:38;101808.56;;;1.17;71.24
21960;BME280;11144;43.030;25.108;2024-01-30T00:52:11;101806.09;;;1.14;71.23
21960;BME280;11144;43.030;25.108;2024-01-30T00:53:45;101807.03;;;1.13;71.40
21960;BME280;11144;43.030;25.108;2024-01-30T00:55:17;101808.63;;;1.15;71.34
21960;BME280;11144;43.030;25.108;2024-01-30T00:56:51;101807.97;;;1.10;71.33
21960;BME280;11144;43.030;25.108;2024-01-30T00:58:23;101796.06;;;1.06;71.42
21960;BME280;11144;43.030;25.108;2024-01-30T00:59:57;101799.31;;;1.11;71.26
21960;BME280;11144;43.030;25.108;2024-01-30T01:01:30;101795.00;;;1.12;71.53
21960;BME280;11144;43.030;25.108;2024-01-30T01:03:04;101795.50;;;1.20;71.34
21960;BME280;11144;43.030;25.108;2024-01-30T01:04:36;101797.03;;;1.25;71.33
21960;BME280;11144;43.030;25.108;2024-01-30T01:06:10;101803.03;;;1.26;71.48
21960;BME280;11144;43.030;25.108;2024-01-30T01:07:43;101808.91;;;1.29;71.37
21960;BME280;11144;43.030;25.108;2024-01-30T01:09:17;101802.78;;;1.32;71.40
21960;BME280;11144;43.030;25.108;2024-01-30T01:10:49;101798.38;;;1.34;71.37
21960;BME280;11144;43.030;25.108;2024-01-30T01:12:23;101795.81;;;1.34;71.37
21960;BME280;11144;43.030;25.108;2024-01-30T01:13:55;101799.16;;;1.36;71.45
21960;BME280;11144;43.030;25.108;2024-01-30T01:15:29;101795.09;;;1.30;71.40
21960;BME280;11144;43.030;25.108;2024-01-30T01:17:03;101790.91;;;1.28;71.66
21960;BME280;11144;43.030;25.108;2024-01-30T01:18:36;101790.75;;;1.31;71.48
21960;BME280;11144;43.030;25.108;2024-01-30T01:20:10;101786.63;;;1.27;71.41
21960;BME280;11144;43.030;25.108;2024-01-30T01:21:44;101796.69;;;1.33;71.58
21960;BME280;11144;43.030;25.108;2024-01-30T01:23:17;101789.94;;;1.30;71.56
21960;BME280;11144;43.030;25.108;2024-01-30T01:24:49;101769.63;;;1.21;71.62
21960;BME280;11144;43.030;25.108;2024-01-30T01:26:23;101772.91;;;1.25;71.75
21960;BME280;11144;43.030;25.108;2024-01-30T01:27:55;101769.13;;;1.33;71.65
21960;BME280;11144;43.030;25.108;2024-01-30T01:29:29;101775.78;;;1.39;71.53
21960;BME280;11144;43.030;25.108;2024-01-30T01:31:01;101769.13;;;1.33;71.61
21960;BME280;11144;43.030;25.108;2024-01-30T01:32:39;101764.81;;;1.34;71.70
21960;BME280;11144;43.030;25.108;2024-01-30T01:34:17;101774.25;;;1.35;71.62
21960;BME280;11144;43.030;25.108;2024-01-30T01:35:50;101772.66;;;1.31;71.67
21960;BME280;11144;43.030;25.108;2024-01-30T01:37:23;101777.06;;;1.29;71.77
21960;BME280;11144;43.030;25.108;2024-01-30T01:38:58;101782.09;;;1.32;71.70
21960;BME280;11144;43.030;25.108;2024-01-30T01:40:31;101778.50;;;1.36;71.65
21960;BME280;11144;43.030;25.108;2024-01-30T01:42:05;101771.59;;;1.36;71.70
21960;BME280;11144;43.030;25.108;2024-01-30T01:43:37;101779.19;;;1.39;71.72
21960;BME280;11144;43.030;25.108;2024-01-30T01:45:11;101784.50;;;1.36;71.62
21960;BME280;11144;43.030;25.108;2024-01-30T01:46:43;101767.25;;;1.37;71.71
21960;BME280;11144;43.030;25.108;2024-01-30T01:48:18;101772.44;;;1.37;71.76
21960;BME280;11144;43.030;25.108;2024-01-30T01:49:51;101774.03;;;1.39;71.58
21960;BME280;11144;43.030;25.108;2024-01-30T01:51:27;101773.97;;;1.41;71.61
21960;BME280;11144;43.030;25.108;2024-01-30T01:53:00;101752.66;;;1.36;71.56
21960;BME280;11144;43.030;25.108;2024-01-30T01:54:34;101764.03;;;1.32;71.36
21960;BME280;11144;43.030;25.108;2024-01-30T01:56:06;101767.25;;;1.37;71.47
21960;BME280;11144;43.030;25.108;2024-01-30T01:57:40;101769.00;;;1.36;71.55
21960;BME280;11144;43.030;25.108;2024-01-30T01:59:13;101763.09;;;1.33;71.51
21960;BME280;11144;43.030;25.108;2024-01-30T02:00:47;101768.16;;;1.36;71.53
21960;BME280;11144;43.030;25.108;2024-01-30T02:02:20;101766.50;;;1.35;71.67
21960;BME280;11144;43.030;25.108;2024-01-30T02:03:58;101769.06;;;1.35;71.71
21960;BME280;11144;43.030;25.108;2024-01-30T02:05:31;101752.13;;;1.28;71.53
21960;BME280;11144;43.030;25.108;2024-01-30T02:07:05;101741.81;;;1.28;71.51
21960;BME280;11144;43.030;25.108;2024-01-30T02:08:37;101760.31;;;1.37;71.48
21960;BME280;11144;43.030;25.108;2024-01-30T02:10:11;101767.25;;;1.37;71.51
21960;BME280;11144;43.030;25.108;2024-01-30T02:11:43;101768.09;;;1.37;71.49
21960;BME280;11144;43.030;25.108;2024-01-30T02:13:16;101769.00;;;1.36;71.56
21960;BME280;11144;43.030;25.108;2024-01-30T02:14:50;101780.31;;;1.34;71.63
21960;BME280;11144;43.030;25.108;2024-01-30T02:16:24;101782.00;;;1.35;71.78
21960;BME280;11144;43.030;25.108;2024-01-30T02:17:57;101773.44;;;1.33;71.75
21960;BME280;11144;43.030;25.108;2024-01-30T02:19:31;101775.97;;;1.34;71.53
21960;BME280;11144;43.030;25.108;2024-01-30T02:21:06;101773.22;;;1.39;71.66
21960;BME280;11144;43.030;25.108;2024-01-30T02:22:40;101770.63;;;1.39;71.49
21960;BME280;11144;43.030;25.108;2024-01-30T02:24:13;101770.75;;;1.36;71.50
21960;BME280;11144;43.030;25.108;2024-01-30T02:25:46;101778.50;;;1.36;71.47
21960;BME280;11144;43.030;25.108;2024-01-30T02:27:19;101788.91;;;1.34;71.63
21960;BME280;11144;43.030;25.108;2024-01-30T02:28:52;101777.72;;;1.34;71.66
21960;BME280;11144;43.030;25.108;2024-01-30T02:30:25;101787.16;;;1.35;71.93
21960;BME280;11144;43.030;25.108;2024-01-30T02:31:58;101783.66;;;1.36;71.83
21960;BME280;11144;43.030;25.108;2024-01-30T02:33:31;101780.97;;;1.39;71.86
21960;BME280;11144;43.030;25.108;2024-01-30T02:35:05;101780.19;;;1.37;71.81
21960;BME280;11144;43.030;25.108;2024-01-30T02:36:38;101776.56;;;1.41;71.74
21960;BME280;11144;43.030;25.108;2024-01-30T02:38:15;101771.44;;;1.39;71.89
21960;BME280;11144;43.030;25.108;2024-01-30T02:39:48;101764.13;;;1.29;71.87
21960;BME280;11144;43.030;25.108;2024-01-30T02:41:21;101776.69;;;1.38;71.69
21960;BME280;11144;43.030;25.108;2024-01-30T02:42:54;101768.22;;;1.34;71.89
21960;BME280;11144;43.030;25.108;2024-01-30T02:44:27;101772.81;;;1.28;71.87
21960;BME280;11144;43.030;25.108;2024-01-30T02:45:59;101773.84;;;1.24;71.86
21960;BME280;11144;43.030;25.108;2024-01-30T02:47:33;101771.31;;;1.22;71.92
21960;BME280;11144;43.030;25.108;2024-01-30T02:49:05;101772.16;;;1.23;71.99
21960;BME280;11144;43.030;25.108;2024-01-30T02:50:38;101772.16;;;1.23;72.09
21960;BME280;11144;43.030;25.108;2024-01-30T02:52:12;101775.69;;;1.20;72.12
21960;BME280;11144;43.030;25.108;2024-01-30T02:53:46;101775.75;;;1.19;71.92
21960;BME280;11144;43.030;25.108;2024-01-30T02:55:18;101757.13;;;1.11;72.20
21960;BME280;11144;43.030;25.108;2024-01-30T02:56:51;101772.22;;;1.21;72.03
21960;BME280;11144;43.030;25.108;2024-01-30T02:58:24;101772.16;;;1.23;71.87
21960;BME280;11144;43.030;25.108;2024-01-30T02:59:57;101765.28;;;1.22;71.99
21960;BME280;11144;43.030;25.108;2024-01-30T03:01:30;101759.34;;;1.20;71.84
21960;BME280;11144;43.030;25.108;2024-01-30T03:03:04;101761.88;;;1.21;72.12
21960;BME280;11144;43.030;25.108;2024-01-30T03:04:40;101762.78;;;1.20;71.96
21960;BME280;11144;43.030;25.108;2024-01-30T03:06:13;101755.22;;;1.16;71.88
21960;BME280;11144;43.030;25.108;2024-01-30T03:07:49;101768.69;;;1.24;72.06
21960;BME280;11144;43.030;25.108;2024-01-30T03:09:21;101761.94;;;1.20;71.92
21960;BME280;11144;43.030;25.108;2024-01-30T03:10:55;101765.28;;;1.22;71.85
21960;BME280;11144;43.030;25.108;2024-01-30T03:12:28;101773.78;;;1.25;71.89
21960;BME280;11144;43.030;25.108;2024-01-30T03:14:01;101772.16;;;1.23;71.88
21960;BME280;11144;43.030;25.108;2024-01-30T03:15:36;101765.16;;;1.25;72.00
21960;BME280;11144;43.030;25.108;2024-01-30T03:17:08;101759.22;;;1.23;71.97
21960;BME280;11144;43.030;25.108;2024-01-30T03:18:42;101760.84;;;1.25;72.01
21960;BME280;11144;43.030;25.108;2024-01-30T03:20:14;101769.38;;;1.27;72.01
21960;BME280;11144;43.030;25.108;2024-01-30T03:21:48;101767.88;;;1.22;71.93
21960;BME280;11144;43.030;25.108;2024-01-30T03:23:22;101769.69;;;1.20;72.06
21960;BME280;11144;43.030;25.108;2024-01-30T03:24:55;101757.03;;;1.14;72.06
21960;BME280;11144;43.030;25.108;2024-01-30T03:26:27;101765.44;;;1.19;72.04
21960;BME280;11144;43.030;25.108;2024-01-30T03:28:01;101774.03;;;1.19;71.98
21960;BME280;11144;43.030;25.108;2024-01-30T03:29:33;101762.78;;;1.20;71.93
21960;BME280;11144;43.030;25.108;2024-01-30T03:31:07;101770.53;;;1.20;71.88
21960;BME280;11144;43.030;25.108;2024-01-30T03:32:39;101755.94;;;1.19;72.02
21960;BME280;11144;43.030;25.108;2024-01-30T03:34:12;101764.50;;;1.20;72.07
21960;BME280;11144;43.030;25.108;2024-01-30T03:35:45;101768.88;;;1.19;72.18
21960;BME280;11144;43.030;25.108;2024-01-30T03:37:18;101763.69;;;1.19;71.94
21960;BME280;11144;43.030;25.108;2024-01-30T03:38:52;101762.84;;;1.19;72.03
21960;BME280;11144;43.030;25.108;2024-01-30T03:40:25;101768.78;;;1.21;72.06
21960;BME280;11144;43.030;25.108;2024-01-30T03:41:59;101758.56;;;1.18;72.01
21960;BME280;11144;43.030;25.108;2024-01-30T03:43:32;101757.88;;;1.14;72.07
21960;BME280;11144;43.030;25.108;2024-01-30T03:45:06;101744.34;;;1.08;71.79
21960;BME280;11144;43.030;25.108;2024-01-30T03:46:38;101754.31;;;1.17;71.88
21960;BME280;11144;43.030;25.108;2024-01-30T03:48:12;101755.22;;;1.16;71.95
21960;BME280;11144;43.030;25.108;2024-01-30T03:49:45;101746.81;;;1.11;71.92
21960;BME280;11144;43.030;25.108;2024-01-30T03:51:18;101759.34;;;1.20;72.01
21960;BME280;11144;43.030;25.108;2024-01-30T03:52:51;101757.59;;;1.20;72.03
21960;BME280;11144;43.030;25.108;2024-01-30T03:54:25;101758.53;;;1.19;71.86
21960;BME280;11144;43.030;25.108;2024-01-30T03:55:58;101753.66;;;1.12;71.83
21960;BME280;11144;43.030;25.108;2024-01-30T03:57:31;101757.97;;;1.11;71.86
21960;BME280;11144;43.030;25.108;2024-01-30T03:59:04;101762.84;;;1.19;71.76
21960;BME280;11144;43.030;25.108;2024-01-30T04:00:36;101757.72;;;1.17;72.07
21960;BME280;11144;43.030;25.108;2024-01-30T04:02:10;101763.09;;;1.13;71.92
21960;BME280;11144;43.030;25.108;2024-01-30T04:03:43;101765.53;;;1.16;71.78
21960;BME280;11144;43.030;25.108;2024-01-30T04:05:17;101763.88;;;1.15;71.67
21960;BME280;11144;43.030;25.108;2024-01-30T04:06:49;101756.16;;;1.13;71.77
21960;BME280;11144;43.030;25.108;2024-01-30T04:08:22;101762.28;;;1.11;71.80
21960;BME280;11144;43.030;25.108;2024-01-30T04:09:57;101762.38;;;1.09;71.70
21960;BME280;11144;43.030;25.108;2024-01-30T04:11:29;101763.16;;;1.11;71.61
21960;BME280;11144;43.030;25.108;2024-01-30T04:13:03;101772.53;;;1.14;71.82
21960;BME280;11144;43.030;25.108;2024-01-30T04:14:38;101774.44;;;1.09;71.33
21960;BME280;11144;43.030;25.108;2024-01-30T04:16:19;101772.81;;;1.06;71.41
21960;BME280;11144;43.030;25.108;2024-01-30T04:17:51;101767.78;;;1.03;71.35
21960;BME280;11144;43.030;25.108;2024-01-30T04:19:25;101768.69;;;1.02;71.52
21960;BME280;11144;43.030;25.108;2024-01-30T04:20:58;101765.31;;;1.00;71.34
21960;BME280;11144;43.030;25.108;2024-01-30T04:22:31;101770.44;;;1.02;71.42
21960;BME280;11144;43.030;25.108;2024-01-30T04:24:04;101763.50;;;1.02;71.36
21960;BME280;11144;43.030;25.108;2024-01-30T04:25:39;101767.88;;;1.02;71.43
21960;BME280;11144;43.030;25.108;2024-01-30T04:27:11;101775.47;;;1.05;71.34
21960;BME280;11144;43.030;25.108;2024-01-30T04:28:45;101778.19;;;1.02;71.48
21960;BME280;11144;43.030;25.108;2024-01-30T04:30:17;101779.16;;;0.99;71.33
21960;BME280;11144;43.030;25.108;2024-01-30T04:31:51;101772.41;;;0.95;71.34
21960;BME280;11144;43.030;25.108;2024-01-30T04:33:23;101774.97;;;0.95;71.37
21960;BME280;11144;43.030;25.108;2024-01-30T04:34:56;101766.53;;;0.92;71.47
21960;BME280;11144;43.030;25.108;2024-01-30T04:36:29;101769.03;;;0.93;71.44
21960;BME280;11144;43.030;25.108;2024-01-30T04:38:03;101755.59;;;0.85;71.28
21960;BME280;11144;43.030;25.108;2024-01-30T04:39:35;101779.19;;;0.98;71.30
21960;BME280;11144;43.030;25.108;2024-01-30T04:41:10;101773.03;;;1.02;71.20
21960;BME280;11144;43.030;25.108;2024-01-30T04:42:44;101774.81;;;1.00;70.96
21960;BME280;11144;43.030;25.108;2024-01-30T04:44:16;101774.63;;;1.04;71.33
21960;BME280;11144;43.030;25.108;2024-01-30T04:45:50;101757.56;;;1.00;71.20
21960;BME280;11144;43.030;25.108;2024-01-30T04:47:23;101779.59;;;1.09;71.29
21960;BME280;11144;43.030;25.108;2024-01-30T04:48:57;101776.03;;;1.13;71.44
21960;BME280;11144;43.030;25.108;2024-01-30T04:50:30;101776.13;;;1.10;71.48
21960;BME280;11144;43.030;25.108;2024-01-30T04:52:03;101774.41;;;1.10;71.33
21960;BME280;11144;43.030;25.108;2024-01-30T04:53:36;101787.13;;;1.15;71.32
21960;BME280;11144;43.030;25.108;2024-01-30T04:55:09;101781.03;;;1.16;71.26
21960;BME280;11144;43.030;25.108;2024-01-30T04:56:43;101779.19;;;1.19;71.20
21960;BME280;11144;43.030;25.108;2024-01-30T04:58:16;101781.91;;;1.16;71.38
21960;BME280;11144;43.030;25.108;2024-01-30T04:59:49;101774.22;;;1.15;71.49
21960;BME280;11144;43.030;25.108;2024-01-30T05:01:22;101791.38;;;1.16;71.29
21960;BME280;11144;43.030;25.108;2024-01-30T05:02:55;101778.47;;;1.16;71.65
21960;BME280;11144;43.030;25.108;2024-01-30T05:04:28;101787.06;;;1.16;71.69
21960;BME280;11144;43.030;25.108;2024-01-30T05:06:01;101774.22;;;1.15;71.61
21960;BME280;11144;43.030;25.108;2024-01-30T05:07:33;101775.88;;;1.16;71.49
21960;BME280;11144;43.030;25.108;2024-01-30T05:09:07;101781.91;;;1.16;71.45
21960;BME280;11144;43.030;25.108;2024-01-30T05:10:39;101777.63;;;1.15;71.47
21960;BME280;11144;43.030;25.108;2024-01-30T05:12:14;101779.56;;;1.10;71.47
21960;BME280;11144;43.030;25.108;2024-01-30T05:13:47;101771.81;;;1.10;71.57
21960;BME280;11144;43.030;25.108;2024-01-30T05:15:20;101773.47;;;1.11;71.50
21960;BME280;11144;43.030;25.108;2024-01-30T05:16:55;101772.63;;;1.11;71.48
21960;BME280;11144;43.030;25.108;2024-01-30T05:18:28;101769.22;;;1.10;71.58
21960;BME280;11144;43.030;25.108;2024-01-30T05:20:00;101771.06;;;1.07;71.53
21960;BME280;11144;43.030;25.108;2024-01-30T05:21:34;101782.84;;;1.14;71.60
21960;BME280;11144;43.030;25.108;2024-01-30T05:23:07;101777.69;;;1.14;71.50
21960;BME280;11144;43.030;25.108;2024-01-30T05:24:41;101784.53;;;1.15;71.49
21960;BME280;11144;43.030;25.108;2024-01-30T05:26:14;101787.25;;;1.12;71.55
21960;BME280;11144;43.030;25.108;2024-01-30T05:27:48;101784.59;;;1.13;71.55
21960;BME280;11144;43.030;25.108;2024-01-30T05:29:21;101771.94;;;1.07;71.76
21960;BME280;11144;43.030;25.108;2024-01-30T05:30:55;101779.50;;;1.12;71.39
21960;BME280;11144;43.030;25.108;2024-01-30T05:32:27;101776.78;;;1.15;71.43
21960;BME280;11144;43.030;25.108;2024-01-30T05:34:01;101779.38;;;1.15;71.46
21960;BME280;11144;43.030;25.108;2024-01-30T05:35:34;101788.88;;;1.14;71.34
21960;BME280;11144;43.030;25.108;2024-01-30T05:37:07;101793.06;;;1.17;71.41
21960;BME280;11144;43.030;25.108;2024-01-30T05:38:40;101796.44;;;1.19;71.42
21960;BME280;11144;43.030;25.108;2024-01-30T05:40:13;101799.91;;;1.18;71.19
21960;BME280;11144;43.030;25.108;2024-01-30T05:41:46;101801.63;;;1.17;71.49
21960;BME280;11144;43.030;25.108;2024-01-30T05:43:21;101792.94;;;1.20;71.44
21960;BME280;11144;43.030;25.108;2024-01-30T05:44:54;101798.25;;;1.17;71.12
21960;BME280;11144;43.030;25.108;2024-01-30T05:46:27;101797.47;;;1.15;71.44
21960;BME280;11144;43.030;25.108;2024-01-30T05:48:00;101798.47;;;1.11;71.55
21960;BME280;11144;43.030;25.108;2024-01-30T05:49:33;101801.63;;;1.17;71.64
21960;BME280;11144;43.030;25.108;2024-01-30T05:51:07;101806.69;;;1.20;71.58
21960;BME280;11144;43.030;25.108;2024-01-30T05:52:40;101776.25;;;1.07;71.48
21960;BME280;11144;43.030;25.108;2024-01-30T05:54:13;101799.19;;;1.14;71.54
21960;BME280;11144;43.030;25.108;2024-01-30T05:55:49;101800.88;;;1.15;71.54
21960;BME280;11144;43.030;25.108;2024-01-30T05:57:21;101803.53;;;1.14;71.39
21960;BME280;11144;43.030;25.108;2024-01-30T05:58:56;101808.75;;;1.12;71.42
21960;BME280;11144;43.030;25.108;2024-01-30T06:00:28;101805.16;;;1.16;71.66
21960;BME280;11144;43.030;25.108;2024-01-30T06:02:01;101805.03;;;1.19;71.60
21960;BME280;11144;43.030;25.108;2024-01-30T06:03:34;101786.41;;;1.11;71.22
21960;BME280;11144;43.030;25.108;2024-01-30T06:05:08;101789.56;;;1.18;71.18
21960;BME280;11144;43.030;25.108;2024-01-30T06:06:41;101804.69;;;1.27;71.45
21960;BME280;11144;43.030;25.108;2024-01-30T06:08:14;101805.47;;;1.29;71.33
21960;BME280;11144;43.030;25.108;2024-01-30T06:09:47;101797.63;;;1.32;71.29
21960;BME280;11144;43.030;25.108;2024-01-30T06:11:20;101807.94;;;1.32;71.41
21960;BME280;11144;43.030;25.108;2024-01-30T06:12:53;101811.41;;;1.31;71.41
21960;BME280;11144;43.030;25.108;2024-01-30T06:14:28;101812.38;;;1.28;71.27
21960;BME280;11144;43.030;25.108;2024-01-30T06:16:00;101809.75;;;1.30;71.40
21960;BME280;11144;43.030;25.108;2024-01-30T06:17:34;101809.75;;;1.30;71.27
21960;BME280;11144;43.030;25.108;2024-01-30T06:19:06;101809.88;;;1.27;71.48
21960;BME280;11144;43.030;25.108;2024-01-30T06:20:39;101815.81;;;1.29;71.21
21960;BME280;11144;43.030;25.108;2024-01-30T06:22:12;101815.63;;;1.33;71.18
21960;BME280;11144;43.030;25.108;2024-01-30T06:23:45;101818.19;;;1.35;71.05
21960;BME280;11144;43.030;25.108;2024-01-30T06:25:18;101805.28;;;1.33;70.94
21960;BME280;11144;43.030;25.108;2024-01-30T06:26:51;101806.91;;;1.36;71.14
21960;BME280;11144;43.030;25.108;2024-01-30T06:28:24;101809.44;;;1.37;71.17
21960;BME280;11144;43.030;25.108;2024-01-30T06:29:58;101810.22;;;1.39;71.10
21960;BME280;11144;43.030;25.108;2024-01-30T06:31:31;101805.97;;;1.38;70.86
21960;BME280;11144;43.030;25.108;2024-01-30T06:33:04;101813.72;;;1.38;70.99
21960;BME280;11144;43.030;25.108;2024-01-30T06:34:37;101812.00;;;1.37;70.89
21960;BME280;11144;43.030;25.108;2024-01-30T06:36:12;101802.78;;;1.32;71.03
21960;BME280;11144;43.030;25.108;2024-01-30T06:37:45;101797.34;;;1.38;70.84
21960;BME280;11144;43.030;25.108;2024-01-30T06:39:20;101806.66;;;1.42;70.81
21960;BME280;11144;43.030;25.108;2024-01-30T06:40:53;101805.78;;;1.43;70.88
21960;BME280;11144;43.030;25.108;2024-01-30T06:42:26;101813.53;;;1.43;70.90
21960;BME280;11144;43.030;25.108;2024-01-30T06:43:59;101803.38;;;1.38;71.09
21960;BME280;11144;43.030;25.108;2024-01-30T06:45:33;101806.72;;;1.40;70.81
21960;BME280;11144;43.030;25.108;2024-01-30T06:47:06;101804.06;;;1.42;70.61
21960;BME280;11144;43.030;25.108;2024-01-30T06:48:38;101801.75;;;1.36;70.69
21960;BME280;11144;43.030;25.108;2024-01-30T06:50:12;101806.81;;;1.39;70.83
21960;BME280;11144;43.030;25.108;2024-01-30T06:51:45;101807.84;;;1.35;70.59
21960;BME280;11144;43.030;25.108;2024-01-30T06:53:18;101811.25;;;1.35;70.68
21960;BME280;11144;43.030;25.108;2024-01-30T06:54:50;101792.75;;;1.24;70.71
21960;BME280;11144;43.030;25.108;2024-01-30T06:56:24;101814.66;;;1.36;70.64
21960;BME280;11144;43.030;25.108;2024-01-30T06:57:57;101817.16;;;1.39;70.53
21960;BME280;11144;43.030;25.108;2024-01-30T06:59:31;101795.22;;;1.27;70.38
21960;BME280;11144;43.030;25.108;2024-01-30T07:01:05;101824.63;;;1.45;70.69
21960;BME280;11144;43.030;25.108;2024-01-30T07:02:38;101813.19;;;1.50;70.37
21960;BME280;11144;43.030;25.108;2024-01-30T07:04:11;101808.63;;;1.57;70.43
21960;BME280;11144;43.030;25.108;2024-01-30T07:05:44;101819.78;;;1.58;70.39
21960;BME280;11144;43.030;25.108;2024-01-30T07:07:16;101807.72;;;1.58;70.41
21960;BME280;11144;43.030;25.108;2024-01-30T07:08:50;101820.25;;;1.67;70.56
21960;BME280;11144;43.030;25.108;2024-01-30T07:10:22;101819.31;;;1.70;70.36
21960;BME280;11144;43.030;25.108;2024-01-30T07:11:55;101811.34;;;1.74;70.25
21960;BME280;11144;43.030;25.108;2024-01-30T07:13:30;101803.59;;;1.74;70.00
21960;BME280;11144;43.030;25.108;2024-01-30T07:15:04;101813.56;;;1.83;70.12
21960;BME280;11144;43.030;25.108;2024-01-30T07:16:38;101816.13;;;1.83;70.05
21960;BME280;11144;43.030;25.108;2024-01-30T07:18:11;101818.91;;;1.79;69.87
21960;BME280;11144;43.030;25.108;2024-01-30T07:19:45;101818.06;;;1.78;69.93
21960;BME280;11144;43.030;25.108;2024-01-30T07:21:18;101810.22;;;1.80;70.11
21960;BME280;11144;43.030;25.108;2024-01-30T07:22:53;101816.25;;;1.80;70.15
21960;BME280;11144;43.030;25.108;2024-01-30T07:24:26;101818.84;;;1.80;69.99
21960;BME280;11144;43.030;25.108;2024-01-30T07:25:59;101815.41;;;1.80;70.06
21960;BME280;11144;43.030;25.108;2024-01-30T07:27:32;101802.81;;;1.72;70.12
21960;BME280;11144;43.030;25.108;2024-01-30T07:29:04;101812.78;;;1.81;70.13
21960;BME280;11144;43.030;25.108;2024-01-30T07:30:38;101813.41;;;1.86;70.01
21960;BME280;11144;43.030;25.108;2024-01-30T07:32:11;101822.69;;;1.90;70.08
21960;BME280;11144;43.030;25.108;2024-01-30T07:33:45;101822.78;;;1.89;69.70
21960;BME280;11144;43.030;25.108;2024-01-30T07:35:17;101823.56;;;1.91;69.80
21960;BME280;11144;43.030;25.108;2024-01-30T07:36:50;101800.09;;;1.75;69.61
21960;BME280;11144;43.030;25.108;2024-01-30T07:38:27;101813.56;;;1.83;69.51
21960;BME280;11144;43.030;25.108;2024-01-30T07:40:01;101824.53;;;1.88;69.89
21960;BME280;11144;43.030;25.108;2024-01-30T07:41:34;101811.84;;;1.82;69.83
21960;BME280;11144;43.030;25.108;2024-01-30T07:43:07;101825.56;;;1.84;69.55
21960;BME280;11144;43.030;25.108;2024-01-30T07:44:40;101811.28;;;1.76;69.62
21960;BME280;11144;43.030;25.108;2024-01-30T07:46:13;101834.88;;;1.88;69.81
21960;BME280;11144;43.030;25.108;2024-01-30T07:47:47;101822.66;;;1.92;69.61
21960;BME280;11144;43.030;25.108;2024-01-30T07:49:20;101827.69;;;1.95;69.20
21960;BME280;11144;43.030;25.108;2024-01-30T07:50:52;101820.91;;;1.92;68.95
21960;BME280;11144;43.030;25.108;2024-01-30T07:52:26;101827.75;;;1.93;69.15
21960;BME280;11144;43.030;25.108;2024-01-30T07:54:00;101828.53;;;1.95;69.21
21960;BME280;11144;43.030;25.108;2024-01-30T07:55:32;101813.00;;;1.95;69.08
21960;BME280;11144;43.030;25.108;2024-01-30T07:57:05;101827.63;;;1.96;69.10
21960;BME280;11144;43.030;25.108;2024-01-30T07:58:38;101830.91;;;2.00;69.23
21960;BME280;11144;43.030;25.108;2024-01-30T08:00:12;101826.78;;;1.96;69.24
21960;BME280;11144;43.030;25.108;2024-01-30T08:01:45;101820.78;;;1.95;69.05
21960;BME280;11144;43.030;25.108;2024-01-30T08:03:19;101820.00;;;1.93;69.15
21960;BME280;11144;43.030;25.108;2024-01-30T08:04:52;101831.84;;;1.99;68.97
21960;BME280;11144;43.030;25.108;2024-01-30T08:06:25;101824.84;;;2.01;69.06
21960;BME280;11144;43.030;25.108;2024-01-30T08:07:57;101825.66;;;2.01;69.27